createdAt,value
2019-03-20T00:01:07.843Z,4.61
2019-03-20T00:03:38.144Z,4.57
2019-03-20T00:06:08.557Z,4.91
2019-03-20T00:08:39.002Z,4.82
2019-03-20T00:11:09.413Z,4.59
2019-03-20T00:13:39.863Z,4.57
2019-03-20T00:16:10.257Z,4.53
2019-03-20T00:18:40.697Z,4.47
2019-03-20T00:21:11.178Z,4.42
2019-03-20T00:23:41.595Z,4.86
2019-03-20T00:26:12.013Z,4.81
2019-03-20T00:28:42.409Z,4.72
2019-03-20T00:31:14.914Z,4.64
2019-03-20T00:33:45.421Z,4.54
2019-03-20T00:36:15.977Z,4.67
2019-03-20T00:38:46.375Z,4.58
2019-03-20T00:41:16.854Z,4.54
2019-03-20T00:43:47.262Z,4.29
2019-03-20T00:46:17.656Z,4.38
2019-03-20T00:48:49.085Z,4.25
2019-03-20T00:51:19.515Z,4.47
2019-03-20T00:53:50.064Z,4.36
2019-03-20T00:56:20.483Z,4.41
2019-03-20T00:58:50.954Z,4.30
2019-03-20T01:01:21.384Z,4.16
2019-03-20T01:03:51.945Z,4.22
2019-03-20T01:06:22.370Z,4.04
2019-03-20T01:08:52.815Z,3.97
2019-03-20T01:11:23.215Z,4.02
2019-03-20T01:13:53.662Z,3.94
2019-03-20T01:16:24.443Z,3.95
2019-03-20T01:18:55.897Z,3.84
2019-03-20T01:21:26.278Z,3.79
2019-03-20T01:23:56.685Z,3.90
2019-03-20T01:26:27.108Z,4.15
2019-03-20T01:28:57.535Z,4.19
2019-03-20T01:31:27.926Z,4.21
2019-03-20T01:33:58.323Z,4.05
2019-03-20T01:36:28.780Z,3.87
2019-03-20T01:38:59.211Z,3.75
2019-03-20T01:41:37.555Z,3.63
2019-03-20T01:44:01.773Z,3.68
2019-03-20T01:46:32.228Z,4.05
2019-03-20T01:49:02.723Z,4.01
2019-03-20T01:51:33.230Z,3.97
2019-03-20T01:54:03.621Z,3.81
2019-03-20T01:56:34.096Z,3.55
2019-03-20T01:59:04.519Z,3.53
2019-03-20T02:01:35.064Z,3.60
2019-03-20T02:04:05.479Z,3.84
2019-03-20T02:06:36.056Z,3.69
2019-03-20T02:09:08.060Z,3.48
2019-03-20T02:11:38.530Z,3.29
2019-03-20T02:14:09.029Z,3.23
2019-03-20T02:16:39.579Z,3.16
2019-03-20T02:19:10.181Z,3.04
2019-03-20T02:21:40.612Z,3.07
2019-03-20T02:24:11.077Z,3.04
2019-03-20T02:26:41.568Z,2.88
2019-03-20T02:29:11.992Z,2.84
2019-03-20T02:31:42.439Z,2.94
2019-03-20T02:34:12.951Z,2.89
2019-03-20T02:36:43.415Z,2.91
2019-03-20T02:39:13.856Z,3.09
2019-03-20T02:41:44.275Z,2.95
2019-03-20T02:44:14.690Z,3.05
2019-03-20T02:46:45.112Z,2.89
2019-03-20T02:49:15.560Z,2.89
2019-03-20T02:51:45.975Z,3.01
2019-03-20T02:54:16.425Z,2.83
2019-03-20T02:56:46.836Z,2.77
2019-03-20T02:59:17.308Z,2.80
2019-03-20T03:01:47.774Z,2.61
2019-03-20T03:04:18.248Z,2.56
2019-03-20T03:06:48.680Z,2.58
2019-03-20T03:09:19.116Z,2.64
2019-03-20T03:11:49.618Z,2.59
2019-03-20T03:14:20.070Z,2.53
2019-03-20T03:16:50.465Z,2.67
2019-03-20T03:19:37.923Z,2.59
2019-03-20T03:22:09.890Z,2.52
2019-03-20T03:24:40.280Z,2.65
2019-03-20T03:27:10.750Z,2.54
2019-03-20T03:29:41.202Z,2.53
2019-03-20T03:32:11.612Z,2.50
2019-03-20T03:34:42.027Z,2.71
2019-03-20T03:37:12.427Z,2.56
2019-03-20T03:39:42.855Z,2.75
2019-03-20T03:42:13.275Z,2.57
2019-03-20T03:44:43.712Z,2.69
2019-03-20T03:47:14.236Z,2.89
2019-03-20T03:49:44.715Z,2.91
2019-03-20T03:52:15.129Z,2.92
2019-03-20T03:54:45.551Z,2.83
2019-03-20T03:57:15.925Z,2.78
2019-03-20T03:59:46.394Z,2.86
2019-03-20T04:02:16.800Z,2.92
2019-03-20T04:04:47.245Z,2.90
2019-03-20T04:07:17.691Z,2.97
2019-03-20T04:09:48.188Z,3.01
2019-03-20T04:12:35.492Z,3.00
2019-03-20T04:15:12.817Z,2.93
2019-03-20T04:17:44.669Z,2.89
2019-03-20T04:20:22.472Z,2.91
2019-03-20T04:22:54.220Z,2.87
2019-03-20T04:25:24.744Z,2.95
2019-03-20T04:27:59.673Z,3.00
2019-03-20T04:30:30.078Z,3.01
2019-03-20T04:33:00.538Z,2.99
2019-03-20T04:35:31.096Z,3.08
2019-03-20T04:38:01.996Z,2.95
2019-03-20T04:40:32.511Z,2.97
2019-03-20T04:43:03.028Z,2.92
2019-03-20T04:45:33.616Z,2.94
2019-03-20T04:48:04.100Z,3.14
2019-03-20T04:50:34.554Z,3.04
2019-03-20T04:53:05.010Z,2.59
2019-03-20T04:55:35.405Z,2.52
2019-03-20T04:58:05.838Z,2.26
2019-03-20T05:00:36.440Z,2.46
2019-03-20T05:03:06.872Z,2.43
2019-03-20T05:05:37.303Z,2.27
2019-03-20T05:08:07.821Z,2.08
2019-03-20T05:10:38.590Z,2.34
2019-03-20T05:13:09.108Z,2.19
2019-03-20T05:15:39.590Z,2.09
2019-03-20T05:18:10.245Z,1.94
2019-03-20T05:20:40.760Z,2.12
2019-03-20T05:23:12.757Z,2.72
2019-03-20T05:25:43.179Z,2.55
2019-03-20T05:28:13.582Z,2.51
2019-03-20T05:30:44.085Z,2.29
2019-03-20T05:33:14.719Z,2.27
2019-03-20T05:35:46.652Z,2.17
2019-03-20T05:38:17.137Z,2.50
2019-03-20T05:40:47.587Z,2.45
2019-03-20T05:43:18.371Z,2.56
2019-03-20T05:45:48.885Z,2.44
2019-03-20T05:48:19.333Z,2.04
2019-03-20T05:50:51.393Z,2.28
2019-03-20T05:53:23.312Z,2.31
2019-03-20T05:55:55.309Z,2.43
2019-03-20T05:58:25.761Z,2.71
2019-03-20T06:00:56.705Z,3.01
2019-03-20T06:03:27.369Z,3.10
2019-03-20T06:05:57.810Z,2.54
2019-03-20T06:08:28.359Z,2.90
2019-03-20T06:11:04.949Z,2.92
2019-03-20T06:13:35.473Z,3.21
2019-03-20T06:16:05.939Z,3.03
2019-03-20T06:18:36.583Z,2.98
2019-03-20T06:21:07.148Z,2.71
2019-03-20T06:23:38.019Z,3.03
2019-03-20T06:26:08.858Z,3.07
2019-03-20T06:28:40.871Z,3.04
2019-03-20T06:31:11.672Z,3.41
2019-03-20T06:33:43.722Z,3.23
2019-03-20T06:36:14.246Z,2.93
2019-03-20T06:38:44.892Z,3.04
2019-03-20T06:41:15.333Z,3.24
2019-03-20T06:43:45.737Z,3.00
2019-03-20T06:46:16.145Z,3.24
2019-03-20T06:48:46.601Z,3.40
2019-03-20T06:51:17.144Z,3.60
2019-03-20T06:53:47.555Z,4.42
2019-03-20T06:56:17.982Z,4.11
2019-03-20T06:58:49.944Z,4.33
2019-03-20T07:01:23.588Z,3.87
2019-03-20T07:04:00.080Z,4.01
2019-03-20T07:06:39.489Z,3.65
2019-03-20T07:09:21.627Z,4.19
2019-03-20T07:11:52.072Z,3.79
2019-03-20T07:14:23.480Z,3.53
2019-03-20T07:16:53.945Z,4.04
2019-03-20T07:19:24.438Z,4.23
2019-03-20T07:21:54.854Z,4.70
2019-03-20T07:24:25.296Z,5.24
2019-03-20T07:26:55.810Z,4.58
2019-03-20T07:29:26.225Z,5.51
2019-03-20T07:31:59.731Z,4.96
2019-03-20T07:34:30.257Z,5.71
2019-03-20T07:37:00.744Z,4.96
2019-03-20T07:39:31.340Z,5.19
2019-03-20T07:42:01.746Z,5.76
2019-03-20T07:44:32.253Z,5.68
2019-03-20T07:47:02.711Z,5.80
2019-03-20T07:49:33.221Z,6.60
2019-03-20T07:52:03.741Z,4.94
2019-03-20T07:54:34.206Z,3.91
2019-03-20T07:57:04.616Z,4.30
2019-03-20T07:59:35.071Z,4.99
2019-03-20T08:02:05.478Z,5.59
2019-03-20T08:04:35.943Z,6.06
2019-03-20T08:07:06.348Z,5.87
2019-03-20T08:09:36.909Z,4.96
2019-03-20T08:12:07.397Z,5.45
2019-03-20T08:14:37.879Z,5.48
2019-03-20T08:17:09.805Z,5.17
2019-03-20T08:19:41.808Z,4.57
2019-03-20T08:22:13.823Z,4.60
2019-03-20T08:24:44.228Z,4.76
2019-03-20T08:27:14.705Z,4.97
2019-03-20T08:29:45.192Z,5.34
2019-03-20T08:32:15.725Z,5.82
2019-03-20T08:34:46.137Z,5.98
2019-03-20T08:37:16.564Z,6.00
2019-03-20T08:39:47.090Z,5.87
2019-03-20T08:42:17.958Z,6.21
2019-03-20T08:44:48.442Z,6.42
2019-03-20T08:47:18.947Z,6.21
2019-03-20T08:49:49.491Z,5.79
2019-03-20T08:52:19.930Z,6.23
2019-03-20T08:54:50.425Z,6.43
2019-03-20T08:57:20.834Z,6.49
2019-03-20T08:59:51.270Z,6.64
2019-03-20T09:02:22.153Z,6.81
2019-03-20T09:04:52.541Z,7.13
2019-03-20T09:07:22.949Z,7.13
2019-03-20T09:09:53.398Z,7.37
2019-03-20T09:12:23.804Z,7.29
2019-03-20T09:14:54.270Z,7.44
2019-03-20T09:17:24.699Z,7.35
2019-03-20T09:19:55.488Z,7.44
2019-03-20T09:22:25.991Z,7.73
2019-03-20T09:24:56.385Z,7.90
2019-03-20T09:27:26.790Z,7.81
2019-03-20T09:29:57.227Z,7.85
2019-03-20T09:32:27.667Z,7.83
2019-03-20T09:34:58.137Z,7.96
2019-03-20T09:37:28.551Z,8.15
2019-03-20T09:39:58.922Z,8.26
2019-03-20T09:42:29.343Z,8.22
2019-03-20T09:44:59.779Z,8.39
2019-03-20T09:47:30.243Z,8.18
2019-03-20T09:50:01.228Z,8.26
2019-03-20T09:52:31.620Z,8.29
2019-03-20T09:55:02.008Z,8.25
2019-03-20T09:57:32.491Z,8.35
2019-03-20T10:00:02.897Z,8.63
2019-03-20T10:02:33.378Z,8.85
2019-03-20T10:05:04.920Z,8.70
2019-03-20T10:07:35.315Z,8.76
2019-03-20T10:10:08.930Z,8.85
2019-03-20T10:12:39.377Z,8.79
2019-03-20T10:15:12.670Z,9.00
2019-03-20T10:17:43.090Z,9.11
2019-03-20T10:20:18.080Z,9.28
2019-03-20T10:22:48.504Z,9.47
2019-03-20T10:25:18.951Z,9.42
2019-03-20T10:27:51.717Z,9.55
2019-03-20T10:30:23.860Z,9.61
2019-03-20T10:32:54.259Z,9.58
2019-03-20T10:35:24.661Z,9.64
2019-03-20T10:37:55.092Z,9.66
2019-03-20T10:40:27.704Z,9.67
2019-03-20T10:43:00.330Z,9.65
2019-03-20T10:45:33.034Z,9.80
2019-03-20T10:48:04.971Z,9.93
2019-03-20T10:50:35.404Z,9.85
2019-03-20T10:53:05.852Z,10.04
2019-03-20T10:55:36.286Z,10.00
2019-03-20T10:58:06.727Z,9.95
2019-03-20T11:00:37.319Z,9.94
2019-03-20T11:03:07.735Z,10.17
2019-03-20T11:05:38.358Z,10.30
2019-03-20T11:08:10.090Z,10.45
2019-03-20T11:10:40.521Z,10.57
2019-03-20T11:13:11.150Z,10.59
2019-03-20T11:15:41.594Z,10.62
2019-03-20T11:18:12.025Z,10.74
2019-03-20T11:20:42.466Z,10.78
2019-03-20T11:23:14.470Z,10.95
2019-03-20T11:25:44.845Z,11.04
2019-03-20T11:28:15.248Z,11.20
2019-03-20T11:30:45.681Z,11.13
2019-03-20T11:33:16.157Z,11.01
2019-03-20T11:35:47.118Z,11.04
2019-03-20T11:38:17.552Z,11.19
2019-03-20T11:40:47.980Z,11.17
2019-03-20T11:43:18.453Z,11.14
2019-03-20T11:45:48.849Z,10.98
2019-03-20T11:48:19.279Z,11.09
2019-03-20T11:50:49.767Z,11.21
2019-03-20T11:53:20.298Z,10.98
2019-03-20T11:55:50.772Z,11.08
2019-03-20T11:58:21.262Z,11.26
2019-03-20T12:00:51.681Z,11.26
2019-03-20T12:03:22.291Z,11.44
2019-03-20T12:05:52.840Z,11.53
2019-03-20T12:08:23.352Z,11.62
2019-03-20T12:10:53.781Z,11.61
2019-03-20T12:13:24.300Z,11.61
2019-03-20T12:15:55.278Z,11.72
2019-03-20T12:18:27.022Z,11.88
2019-03-20T12:20:58.485Z,11.94
2019-03-20T12:23:28.990Z,12.01
2019-03-20T12:25:59.449Z,12.14
2019-03-20T12:28:32.378Z,12.20
2019-03-20T12:31:02.804Z,12.33
2019-03-20T12:33:34.316Z,12.44
2019-03-20T12:36:04.740Z,12.38
2019-03-20T12:38:35.316Z,12.38
2019-03-20T12:41:05.750Z,12.21
2019-03-20T12:43:36.184Z,12.21
2019-03-20T12:46:09.572Z,12.21
2019-03-20T12:48:39.957Z,12.16
2019-03-20T12:51:10.488Z,12.26
2019-03-20T12:53:40.909Z,12.22
2019-03-20T12:56:11.387Z,12.02
2019-03-20T12:58:41.829Z,11.97
2019-03-20T13:01:12.673Z,11.96
2019-03-20T13:04:01.281Z,11.88
2019-03-20T13:06:36.074Z,11.95
2019-03-20T13:09:07.782Z,12.03
2019-03-20T13:11:38.229Z,11.99
2019-03-20T13:14:11.609Z,12.00
2019-03-20T13:16:43.539Z,11.97
2019-03-20T13:19:15.491Z,11.82
2019-03-20T13:21:47.609Z,11.70
2019-03-20T13:24:18.079Z,11.79
2019-03-20T13:26:48.544Z,11.83
2019-03-20T13:29:20.053Z,11.89
2019-03-20T13:31:50.441Z,11.82
2019-03-20T13:34:22.508Z,11.84
2019-03-20T13:36:52.977Z,11.85
2019-03-20T13:39:23.435Z,11.99
2019-03-20T13:41:53.886Z,11.93
2019-03-20T13:44:24.295Z,11.98
2019-03-20T13:46:56.560Z,11.97
2019-03-20T13:49:27.912Z,11.89
2019-03-20T13:52:10.742Z,11.88
2019-03-20T13:54:33.714Z,11.93
2019-03-20T13:57:04.129Z,11.93
2019-03-20T13:59:34.653Z,11.99
2019-03-20T14:02:05.028Z,12.01
2019-03-20T14:04:35.469Z,11.92
2019-03-20T14:07:06.624Z,11.83
2019-03-20T14:09:37.076Z,12.07
2019-03-20T14:12:07.506Z,12.15
2019-03-20T14:14:38.015Z,12.14
2019-03-20T14:17:08.434Z,12.13
2019-03-20T14:19:38.932Z,12.06
2019-03-20T14:22:10.701Z,12.05
2019-03-20T14:24:41.120Z,12.17
2019-03-20T14:27:11.584Z,12.11
2019-03-20T14:29:42.010Z,12.17
2019-03-20T14:32:15.425Z,12.18
2019-03-20T14:34:46.000Z,12.08
2019-03-20T14:37:16.435Z,12.00
2019-03-20T14:39:46.979Z,11.88
2019-03-20T14:42:18.000Z,11.83
2019-03-20T14:44:51.787Z,11.84
2019-03-20T14:47:23.982Z,11.78
2019-03-20T14:49:55.330Z,11.82
2019-03-20T14:52:25.741Z,11.79
2019-03-20T14:54:57.707Z,11.65
2019-03-20T14:57:28.165Z,11.67
2019-03-20T15:00:03.066Z,11.79
2019-03-20T15:02:35.044Z,11.76
2019-03-20T15:05:12.339Z,11.66
2019-03-20T15:07:42.862Z,11.59
2019-03-20T15:10:24.252Z,11.56
2019-03-20T15:12:55.258Z,11.57
2019-03-20T15:15:44.015Z,11.53
2019-03-20T15:18:14.610Z,11.55
2019-03-20T15:20:45.113Z,11.38
2019-03-20T15:23:17.316Z,11.54
2019-03-20T15:25:47.853Z,11.66
2019-03-20T15:28:18.425Z,11.67
2019-03-20T15:30:49.408Z,11.64
2019-03-20T15:33:21.436Z,11.50
2019-03-20T15:35:54.115Z,11.42
2019-03-20T15:38:27.662Z,11.33
2019-03-20T15:41:01.412Z,11.21
2019-03-20T15:43:31.867Z,11.10
2019-03-20T15:46:05.454Z,11.00
2019-03-20T15:48:35.898Z,10.93
2019-03-20T15:51:07.762Z,10.82
2019-03-20T15:53:41.259Z,10.66
2019-03-20T15:56:13.254Z,10.53
2019-03-20T15:58:44.917Z,10.43
2019-03-20T16:01:20.800Z,10.23
2019-03-20T16:03:53.995Z,10.12
2019-03-20T16:06:27.474Z,10.04
2019-03-20T16:09:02.239Z,9.91
2019-03-20T16:11:35.359Z,9.84
2019-03-20T16:14:07.944Z,9.80
2019-03-20T16:16:39.581Z,9.67
2019-03-20T16:19:14.394Z,9.67
2019-03-20T16:21:46.562Z,9.60
2019-03-20T16:24:20.604Z,9.55
2019-03-20T16:26:51.142Z,9.49
2019-03-20T16:29:27.430Z,9.45
2019-03-20T16:31:59.638Z,9.44
2019-03-20T16:34:32.167Z,9.40
2019-03-20T16:37:02.886Z,9.32
2019-03-20T16:39:33.414Z,9.22
2019-03-20T16:42:09.428Z,9.11
2019-03-20T16:44:59.017Z,9.10
2019-03-20T16:47:30.785Z,8.99
2019-03-20T16:50:01.387Z,8.93
2019-03-20T16:52:40.421Z,8.86
2019-03-20T16:55:13.218Z,8.78
2019-03-20T16:57:43.677Z,8.78
2019-03-20T17:00:18.805Z,8.72
2019-03-20T17:02:54.993Z,8.66
2019-03-20T17:05:34.857Z,8.59
2019-03-20T17:08:06.129Z,8.55
2019-03-20T17:13:35.763Z,8.44
2019-03-20T17:16:06.247Z,8.39
2019-03-20T17:18:40.084Z,8.34
2019-03-20T17:21:10.647Z,8.29
2019-03-20T17:26:42.780Z,8.08
2019-03-20T17:29:15.870Z,8.03
2019-03-20T17:31:48.197Z,7.99
2019-03-20T17:34:21.294Z,7.94
2019-03-20T17:36:51.810Z,7.90
2019-03-20T17:39:25.378Z,7.87
2019-03-20T17:41:57.435Z,7.87
2019-03-20T17:47:19.310Z,7.87
2019-03-20T17:49:49.906Z,7.82
2019-03-20T17:52:21.495Z,7.81
2019-03-20T17:54:52.269Z,7.82
2019-03-20T17:57:24.334Z,7.81
2019-03-20T17:59:55.341Z,7.84
2019-03-20T18:02:28.858Z,7.76
2019-03-20T18:04:59.417Z,7.75
2019-03-20T18:07:31.422Z,7.72
2019-03-20T18:10:07.497Z,7.71
2019-03-20T18:12:56.836Z,7.65
2019-03-20T18:15:38.644Z,7.58
2019-03-20T18:18:12.265Z,7.48
2019-03-20T18:20:45.628Z,7.48
2019-03-20T18:23:25.996Z,7.45
2019-03-20T18:25:58.245Z,7.40
2019-03-20T18:31:21.655Z,7.29
2019-03-20T18:33:52.134Z,7.24
2019-03-20T18:36:27.973Z,7.12
2019-03-20T18:39:01.515Z,7.08
2019-03-20T18:41:32.068Z,7.07
2019-03-20T18:49:36.047Z,6.96
2019-03-20T18:52:11.939Z,6.89
2019-03-20T18:54:42.663Z,6.85
2019-03-20T18:57:27.687Z,6.82
2019-03-20T19:00:13.219Z,6.76
2019-03-20T19:02:46.316Z,6.67
2019-03-20T19:05:22.917Z,6.69
2019-03-20T19:07:57.579Z,6.68
2019-03-20T19:10:34.975Z,6.60
2019-03-20T19:13:05.697Z,6.52
2019-03-20T19:15:40.253Z,6.49
2019-03-20T19:18:14.595Z,6.44
2019-03-20T19:20:48.599Z,6.43
2019-03-20T19:23:31.186Z,6.35
2019-03-20T19:26:05.036Z,6.31
2019-03-20T19:28:36.820Z,6.24
2019-03-20T19:31:07.335Z,6.29
2019-03-20T19:33:38.901Z,6.25
2019-03-20T19:36:14.797Z,6.14
2019-03-20T19:38:47.232Z,6.15
2019-03-20T19:41:19.367Z,6.02
2019-03-20T19:44:04.918Z,6.03
2019-03-20T19:46:33.593Z,6.09
2019-03-20T19:49:07.272Z,6.09
2019-03-20T19:54:41.135Z,6.06
2019-03-20T19:57:15.481Z,6.02
2019-03-20T20:03:24.090Z,6.03
2019-03-20T20:05:58.055Z,6.01
2019-03-20T20:08:31.721Z,6.03
2019-03-20T20:11:06.996Z,6.07
2019-03-20T20:13:40.840Z,6.08
2019-03-20T20:16:11.384Z,6.05
2019-03-20T20:18:42.006Z,6.02
2019-03-20T20:21:16.489Z,6.00
2019-03-20T20:23:55.558Z,5.97
2019-03-20T20:26:36.250Z,5.95
2019-03-20T20:29:13.242Z,5.90
2019-03-20T20:31:47.342Z,5.91
2019-03-20T20:34:19.694Z,5.89
2019-03-20T20:36:50.296Z,5.86
2019-03-20T20:39:22.116Z,5.83
2019-03-20T20:41:55.421Z,5.83
2019-03-20T20:44:28.138Z,5.85
2019-03-20T20:46:58.666Z,5.84
2019-03-20T20:49:32.539Z,5.86
2019-03-20T20:52:05.516Z,5.85
2019-03-20T20:54:40.386Z,5.82
2019-03-20T20:57:16.956Z,5.81
2019-03-20T20:59:47.438Z,5.85
2019-03-20T21:02:17.918Z,5.79
2019-03-20T21:04:49.404Z,5.78
2019-03-20T21:07:19.825Z,5.77
2019-03-20T21:09:50.296Z,5.70
2019-03-20T21:12:20.804Z,5.70
2019-03-20T21:14:51.344Z,5.69
2019-03-20T21:17:24.939Z,5.67
2019-03-20T21:20:00.106Z,5.68
2019-03-20T21:22:33.587Z,5.66
2019-03-20T21:25:04.414Z,5.64
2019-03-20T21:28:11.763Z,5.63
2019-03-20T21:30:57.295Z,5.66
2019-03-20T21:33:47.198Z,5.67
2019-03-20T21:39:43.971Z,5.61
2019-03-20T21:42:41.493Z,5.54
2019-03-20T21:45:26.830Z,5.55
2019-03-20T21:47:57.343Z,5.58
2019-03-20T21:50:39.692Z,5.59
2019-03-20T21:53:13.236Z,5.60
2019-03-20T21:56:18.448Z,5.60
2019-03-20T21:59:08.460Z,5.62
2019-03-20T22:01:59.982Z,5.55
2019-03-20T22:04:30.473Z,5.53
2019-03-20T22:07:10.261Z,5.51
2019-03-20T22:09:52.336Z,5.47
2019-03-20T22:12:34.740Z,5.48
2019-03-20T22:15:08.355Z,5.46
2019-03-20T22:17:59.546Z,5.51
2019-03-20T22:20:39.062Z,5.53
2019-03-20T22:23:34.642Z,5.47
2019-03-20T22:26:17.047Z,5.48
2019-03-20T22:28:59.309Z,5.44
2019-03-20T22:31:31.858Z,5.41
2019-03-20T22:34:24.649Z,5.39
2019-03-20T22:36:55.115Z,5.41
2019-03-20T22:39:43.748Z,5.44
2019-03-20T22:42:20.241Z,5.41
2019-03-20T22:45:13.431Z,5.43
2019-03-20T22:48:03.528Z,5.40
2019-03-20T22:50:37.116Z,5.37
2019-03-20T22:53:27.002Z,5.37
2019-03-20T22:56:18.332Z,5.37
2019-03-20T22:58:48.762Z,5.31
2019-03-20T23:01:25.204Z,5.28
2019-03-20T23:04:04.414Z,5.30
2019-03-20T23:06:36.467Z,5.28
2019-03-20T23:09:08.341Z,5.19
2019-03-20T23:11:38.813Z,5.23
2019-03-20T23:14:09.428Z,5.19
2019-03-20T23:16:39.886Z,5.14
2019-03-20T23:19:10.361Z,5.09
2019-03-20T23:21:40.803Z,5.13
2019-03-20T23:24:20.406Z,5.10
2019-03-20T23:26:48.348Z,5.10
2019-03-20T23:29:18.807Z,5.12
2019-03-20T23:31:50.820Z,5.08
2019-03-20T23:34:21.263Z,5.10
2019-03-20T23:36:51.738Z,5.07
2019-03-20T23:39:22.222Z,5.03
2019-03-20T23:41:52.640Z,5.01
2019-03-20T23:44:25.049Z,5.04
2019-03-20T23:46:55.614Z,5.01
2019-03-20T23:49:28.170Z,5.03
2019-03-20T23:52:00.285Z,5.02
2019-03-20T23:54:38.191Z,5.02
2019-03-20T23:57:12.238Z,4.97
2019-03-20T23:59:42.628Z,4.94
